Terminal Aerodrome Forecast
Issued by NWS

Home | Current Version | Previous Version | Text Only | Print | Product List | Glossary On
Versions: 1 2 3 4 5 6 7 8 9 10 11 12 13 14 15 16 17 18 19
000
FTUS46 KLOX 240500
TAFVNY
TAF
KVNY 240532Z 2406/2506 VRB03KT P6SM SCT200
     FM241400 36006KT P6SM SCT200
     FM242100 14008KT P6SM SCT200
     FM250300 VRB03KT P6SM FEW200=

USA.gov is the U.S. government's official web portal to all federal, state and local government web resources and services.